Maryland METAR Reports


Distance/Direction noted is from Ellicott City, MD as the crow flies

KCBE - Cumberland - 118 miles WNW
Updated: Thu, 07/31/2014 11:39 PM
Clear
Clear
 Wind from NNE
Wind: NNE 6 mph
Temperature: 66°F
Dew Point: 61°F
Humidity: 83%
Barometer: 30.17 inHg
Clouds: Clear
Visibility: 10 miles
2014/08/01 03:39 KCBE 010339Z AUTO 02005KT 10SM CLR 19/16 A3017 RMK AO1
KHGR - Hagerstown - 57 miles NW
Updated: Thu, 07/31/2014 10:53 PM
Overcast
Overcast
 Wind from calm
Wind: Calm
Temperature: 72°F
Dew Point: 61°F
Humidity: 69%
Barometer: 30.13 inHg
Clouds: Overcast
Visibility: 10 miles
Cloud Details: Few Clouds 7000 ft
Overcast 11000 ft
2014/08/01 02:53 KHGR 010253Z AUTO 00000KT 10SM FEW070 OVC110 22/16 A3013 RMK AO2 SLP207 T02220156 51009
 
KFDK - Frederick - 34 miles NW
Updated: Thu, 07/31/2014 11:40 PM
Overcast
Overcast
 Wind from calm
Wind: Calm
Temperature: 66°F
Dew Point: 64°F
Humidity: 94%
Barometer: 30.15 inHg
Clouds: Overcast
Visibility: 10 miles
Cloud Details: Overcast 12000 ft
2014/08/01 03:40 KFDK 010340Z AUTO 00000KT 10SM OVC120 19/18 A3015 RMK AO2
KGAI - Gaithersburg - 26 miles SW
Updated: Thu, 07/31/2014 11:35 PM
Clear
Clear
 Wind from SSE
Wind: SSE 3 mph
Temperature: 73°F
Dew Point: 63°F
Humidity: 69%
Barometer: 30.17 inHg
Clouds: Clear
Visibility: 10 miles
2014/08/01 03:35 KGAI 010335Z AUTO 15003KT 10SM CLR 23/17 A3017 RMK AO1
 
KBWI - BWI Airport - 15 miles SE
Updated: Thu, 07/31/2014 10:54 PM
Mostly Cloudy
Mostly Cloudy
 Wind from S
Wind: S 3 mph
Temperature: 75°F
Dew Point: 64°F
Humidity: 69%
Barometer: 30.12 inHg
Clouds: Mostly Cloudy
Visibility: 10 miles
Cloud Details: Partly Cloudy 10000 ft
Mostly Cloudy 25000 ft
2014/08/01 02:54 KBWI 010254Z 18003KT 10SM SCT100 BKN250 24/18 A3012 RMK AO2 SLP197 T02390183 51009
KNAK - Annapolis - 32 miles SSE
Updated: Thu, 07/31/2014 10:54 PM
Partly Cloudy
Partly Cloudy
 Wind from S
Wind: S 6 mph
Temperature: 75°F
Dew Point: 64°F
Humidity: 69%
Barometer: 30.13 inHg
Clouds: Partly Cloudy
Visibility: 10 miles
Cloud Details: Partly Cloudy 12000 ft
2014/08/01 02:54 KNAK 010254Z AUTO 18005KT 10SM SCT120 24/18 A3013 RMK AO2 SLP203 T02440183 51009
 
KESN - Easton - 63 miles SE
Updated: Thu, 07/31/2014 11:51 PM
Clear
Clear
 Wind from SSW
Wind: SSW 6 mph
Temperature: 75°F
Dew Point: 72°F
Humidity: 89%
Barometer: 30.17 inHg
Clouds: Clear
Visibility: 10 miles
2014/08/01 03:51 KESN 010351Z AUTO 20005KT 10SM CLR 24/22 A3017 RMK AO2 T02440217
KSBY - Salisbury - 112 miles SE
Updated: Thu, 07/31/2014 10:54 PM
Clear
Clear
 Wind from S
Wind: S 3 mph
Temperature: 73°F
Dew Point: 66°F
Humidity: 78%
Barometer: 30.16 inHg
Clouds: Clear
Visibility: 10 miles
2014/08/01 02:54 KSBY 010254Z AUTO 17003KT 10SM CLR 23/19 A3016 RMK AO2 SLP214 T02280189 51008